createdAt,value
2023-01-17T00:02:06.265Z,27.45
2023-01-17T00:05:04.510Z,38.97
2023-01-17T00:07:51.334Z,38.33
2023-01-17T00:10:23.558Z,43.83
2023-01-17T00:12:54.110Z,40.33
2023-01-17T00:15:24.602Z,28.98
2023-01-17T00:17:54.433Z,29.40
2023-01-17T00:20:42.575Z,47.00
2023-01-17T00:23:33.458Z,38.70
2023-01-17T00:26:04.977Z,40.78
2023-01-17T00:28:34.784Z,33.80
2023-01-17T00:31:03.647Z,36.33
2023-01-17T00:33:31.338Z,39.03
2023-01-17T00:35:59.979Z,37.25
2023-01-17T00:38:30.456Z,29.13
2023-01-17T00:41:04.637Z,29.48
2023-01-17T00:43:51.103Z,41.50
2023-01-17T00:46:37.841Z,45.13
2023-01-17T00:49:24.753Z,40.50
2023-01-17T00:52:10.867Z,42.50
2023-01-17T00:54:57.301Z,27.77
2023-01-17T00:57:44.818Z,33.70
2023-01-17T01:00:31.919Z,37.92
2023-01-17T01:03:18.174Z,36.55
2023-01-17T01:06:04.457Z,23.73
2023-01-17T01:08:50.578Z,28.70
2023-01-17T01:11:39.560Z,34.65
2023-01-17T01:14:29.422Z,23.00
2023-01-17T01:17:15.926Z,23.02
2023-01-17T01:20:02.298Z,21.27
2023-01-17T01:22:48.793Z,26.70
2023-01-17T01:25:35.230Z,24.73
2023-01-17T01:28:23.332Z,33.50
2023-01-17T01:31:11.424Z,33.25
2023-01-17T01:33:40.475Z,41.95
2023-01-17T01:36:10.301Z,56.33
2023-01-17T01:38:39.592Z,37.50
2023-01-17T01:41:08.523Z,40.33
2023-01-17T01:43:47.183Z,23.10
2023-01-17T01:46:21.763Z,30.38
2023-01-17T01:48:54.895Z,26.50
2023-01-17T01:51:28.918Z,27.65
2023-01-17T01:54:04.742Z,21.10
2023-01-17T01:56:34.638Z,25.63
2023-01-17T01:59:08.157Z,20.67
2023-01-17T02:01:40.111Z,23.13
2023-01-17T02:04:10.245Z,26.63
2023-01-17T02:06:43.139Z,21.90
2023-01-17T02:09:14.580Z,27.50
2023-01-17T02:11:45.073Z,26.67
2023-01-17T02:14:16.834Z,42.53
2023-01-17T02:16:58.659Z,35.83
2023-01-17T02:20:05.165Z,27.95
2023-01-17T02:23:09.347Z,28.50
2023-01-17T02:26:02.245Z,29.50
2023-01-17T02:28:47.988Z,22.35
2023-01-17T02:31:25.739Z,20.88
2023-01-17T02:34:01.681Z,24.20
2023-01-17T02:36:33.994Z,34.97
2023-01-17T02:39:09.756Z,26.60
2023-01-17T02:41:41.953Z,29.17
2023-01-17T02:44:12.350Z,43.40
2023-01-17T02:46:47.763Z,38.00
2023-01-17T02:49:18.348Z,36.83
2023-01-17T02:52:07.207Z,25.15
2023-01-17T02:55:02.272Z,28.23
2023-01-17T02:57:46.427Z,35.85
2023-01-17T03:00:23.127Z,34.08
2023-01-17T03:03:01.611Z,31.88
2023-01-17T03:05:36.835Z,31.35
2023-01-17T03:08:06.622Z,36.92
2023-01-17T03:10:37.389Z,28.45
2023-01-17T03:13:06.391Z,41.42
2023-01-17T03:15:35.243Z,32.78
2023-01-17T03:18:09.143Z,37.95
2023-01-17T03:20:38.027Z,27.00
2023-01-17T03:23:06.952Z,29.98
2023-01-17T03:25:35.866Z,25.85
2023-01-17T03:28:05.900Z,33.70
2023-01-17T03:30:34.813Z,48.08
2023-01-17T03:33:05.100Z,37.47
2023-01-17T03:35:34.078Z,33.85
2023-01-17T03:38:03.198Z,39.47
2023-01-17T03:40:32.025Z,44.95
2023-01-17T03:43:00.889Z,50.10
2023-01-17T03:45:30.021Z,43.10
2023-01-17T03:47:59.855Z,36.45
2023-01-17T03:50:30.121Z,32.85
2023-01-17T03:52:59.025Z,30.65
2023-01-17T03:55:27.858Z,40.85
2023-01-17T03:57:56.748Z,49.60
2023-01-17T04:00:25.712Z,52.28
2023-01-17T04:02:54.549Z,39.90
2023-01-17T04:05:23.572Z,61.35
2023-01-17T04:07:53.770Z,30.17
2023-01-17T04:10:22.694Z,42.25
2023-01-17T04:12:51.572Z,28.95
2023-01-17T04:15:20.424Z,25.33
2023-01-17T04:17:49.277Z,38.08
2023-01-17T04:20:27.135Z,35.80
2023-01-17T04:22:57.460Z,33.83
2023-01-17T04:25:26.591Z,29.98
2023-01-17T04:27:55.418Z,31.08
2023-01-17T04:30:24.363Z,29.60
2023-01-17T04:32:53.358Z,27.80
2023-01-17T04:35:22.620Z,43.67
2023-01-17T04:37:51.934Z,33.35
2023-01-17T04:40:22.192Z,50.63
2023-01-17T04:42:51.375Z,47.55
2023-01-17T04:45:20.332Z,48.70
2023-01-17T04:47:49.201Z,38.90
2023-01-17T04:50:18.256Z,55.25
2023-01-17T04:52:47.054Z,43.35
2023-01-17T04:55:16.076Z,36.08
2023-01-17T04:57:46.218Z,42.90
2023-01-17T05:00:16.292Z,66.78
2023-01-17T05:02:45.153Z,73.13
2023-01-17T05:05:14.416Z,57.58
2023-01-17T05:07:43.270Z,53.00
2023-01-17T05:10:12.651Z,120.97
2023-01-17T05:12:41.434Z,107.20
2023-01-17T05:15:12.513Z,74.80
2023-01-17T05:17:41.297Z,105.57
2023-01-17T05:20:11.412Z,87.80
2023-01-17T05:22:40.275Z,94.53
2023-01-17T05:25:10.002Z,88.45
2023-01-17T05:27:38.925Z,85.93
2023-01-17T05:30:08.776Z,77.80
2023-01-17T05:32:38.953Z,89.30
2023-01-17T05:35:08.770Z,83.88
2023-01-17T05:37:37.535Z,111.10
2023-01-17T05:40:09.724Z,114.65
2023-01-17T05:42:38.493Z,111.10
2023-01-17T05:45:09.936Z,113.80
2023-01-17T05:47:40.102Z,148.88
2023-01-17T05:50:09.949Z,149.43
2023-01-17T05:52:38.791Z,137.20
2023-01-17T05:55:08.899Z,134.25
2023-01-17T05:57:37.795Z,139.73
2023-01-17T06:00:07.754Z,138.43
2023-01-17T06:02:36.674Z,179.93
2023-01-17T06:05:07.778Z,159.38
2023-01-17T06:07:36.584Z,174.77
2023-01-17T06:10:06.489Z,162.63
2023-01-17T06:12:35.389Z,143.30
2023-01-17T06:15:04.675Z,139.98
2023-01-17T06:17:33.597Z,121.43
2023-01-17T06:20:02.458Z,157.85
2023-01-17T06:22:32.667Z,133.80
2023-01-17T06:25:01.552Z,128.88
2023-01-17T06:27:30.381Z,132.82
2023-01-17T06:29:59.167Z,162.07
2023-01-17T06:32:28.074Z,102.97
2023-01-17T06:34:57.041Z,110.78
2023-01-17T06:37:26.349Z,114.63
2023-01-17T06:39:56.586Z,67.78
2023-01-17T06:42:25.527Z,83.80
2023-01-17T06:44:54.297Z,68.35
2023-01-17T06:47:24.148Z,110.03
2023-01-17T06:49:52.970Z,95.15
2023-01-17T06:52:21.924Z,65.80
2023-01-17T06:54:50.804Z,101.13
2023-01-17T06:57:21.061Z,43.92
2023-01-17T06:59:49.905Z,35.70
2023-01-17T07:02:18.764Z,39.30
2023-01-17T07:04:47.980Z,35.47
2023-01-17T07:07:16.848Z,37.58
2023-01-17T07:09:45.798Z,55.15
2023-01-17T07:12:15.094Z,57.92
2023-01-17T07:14:45.322Z,57.15
2023-01-17T07:17:14.114Z,73.97
2023-01-17T07:19:43.105Z,75.68
2023-01-17T07:22:12.357Z,96.07
2023-01-17T07:24:41.633Z,63.70
2023-01-17T07:27:10.493Z,47.05
2023-01-17T07:29:39.311Z,35.38
2023-01-17T07:32:11.041Z,27.13
2023-01-17T07:34:39.881Z,15.25
2023-01-17T07:37:08.713Z,30.00
2023-01-17T07:39:37.575Z,46.40
2023-01-17T07:42:06.431Z,20.13
2023-01-17T07:44:36.579Z,28.52
2023-01-17T07:47:05.414Z,20.77
2023-01-17T07:49:35.617Z,22.60
2023-01-17T07:52:04.747Z,25.83
2023-01-17T07:54:33.559Z,27.65
2023-01-17T07:57:03.220Z,28.35
2023-01-17T07:59:33.859Z,51.10
2023-01-17T08:02:03.413Z,52.30
2023-01-17T08:04:35.285Z,35.75
2023-01-17T08:07:05.614Z,31.20
2023-01-17T08:09:34.475Z,48.33
2023-01-17T08:12:03.401Z,47.85
2023-01-17T08:14:32.334Z,72.55
2023-01-17T08:17:06.117Z,53.67
2023-01-17T08:19:35.088Z,61.70
2023-01-17T08:22:05.324Z,98.45
2023-01-17T08:24:34.242Z,35.90
2023-01-17T08:27:03.712Z,32.80
2023-01-17T08:29:32.562Z,53.20
2023-01-17T08:32:01.994Z,47.08
2023-01-17T08:34:30.811Z,38.80
2023-01-17T08:36:59.606Z,23.98
2023-01-17T08:39:29.824Z,27.23
2023-01-17T08:41:58.641Z,27.95
2023-01-17T08:44:27.444Z,35.17
2023-01-17T08:46:56.589Z,32.63
2023-01-17T08:49:25.791Z,21.85
2023-01-17T08:51:54.617Z,25.15
2023-01-17T08:54:23.920Z,24.23
2023-01-17T08:56:55.712Z,22.75
2023-01-17T08:59:24.593Z,18.63
2023-01-17T09:01:58.228Z,24.25
2023-01-17T09:04:27.311Z,32.70
2023-01-17T09:06:58.763Z,23.30
2023-01-17T09:09:27.606Z,20.70
2023-01-17T09:11:57.976Z,49.92
2023-01-17T09:14:26.793Z,44.95
2023-01-17T09:16:55.807Z,38.65
2023-01-17T09:19:24.711Z,22.30
2023-01-17T09:21:53.721Z,20.95
2023-01-17T09:24:22.585Z,24.33
2023-01-17T09:26:51.544Z,20.98
2023-01-17T09:29:21.790Z,16.80
2023-01-17T09:31:50.626Z,17.63
2023-01-17T09:34:21.674Z,21.15
2023-01-17T09:36:50.574Z,20.73
2023-01-17T09:39:19.431Z,23.50
2023-01-17T09:41:54.021Z,21.08
2023-01-17T09:44:29.543Z,17.23
2023-01-17T09:47:02.060Z,16.80
2023-01-17T09:49:39.161Z,17.40
2023-01-17T09:52:09.792Z,19.15
2023-01-17T09:54:41.526Z,17.00
2023-01-17T09:57:35.909Z,15.82
2023-01-17T10:00:17.670Z,16.83
2023-01-17T10:03:02.200Z,18.63
2023-01-17T10:05:45.959Z,22.45
2023-01-17T10:08:28.156Z,17.95
2023-01-17T10:11:18.555Z,11.90
2023-01-17T10:13:55.707Z,11.05
2023-01-17T10:16:38.969Z,15.15
2023-01-17T10:19:20.815Z,12.70
2023-01-17T10:22:04.341Z,12.65
2023-01-17T10:25:20.837Z,14.00
2023-01-17T10:27:57.588Z,20.00
2023-01-17T10:30:36.115Z,15.35
2023-01-17T10:33:16.146Z,12.93
2023-01-17T10:35:54.492Z,12.85
2023-01-17T10:38:29.169Z,12.23
2023-01-17T10:41:04.205Z,14.35
2023-01-17T10:43:44.327Z,11.90
2023-01-17T10:46:18.237Z,13.30
2023-01-17T10:48:52.073Z,11.02
2023-01-17T10:51:33.839Z,14.40
2023-01-17T10:54:13.875Z,13.15
2023-01-17T10:56:42.837Z,16.55
2023-01-17T10:59:19.408Z,15.70
2023-01-17T11:01:50.355Z,13.77
2023-01-17T11:04:24.833Z,13.02
2023-01-17T11:07:12.256Z,8.95
2023-01-17T11:09:43.159Z,11.70
2023-01-17T11:12:20.161Z,25.20
2023-01-17T11:15:07.530Z,12.55
2023-01-17T11:17:38.559Z,13.70
2023-01-17T11:20:17.112Z,11.02
2023-01-17T11:23:02.141Z,11.68
2023-01-17T11:25:34.520Z,12.98
2023-01-17T11:28:06.773Z,14.55
2023-01-17T11:30:36.093Z,22.48
2023-01-17T11:33:08.632Z,22.73
2023-01-17T11:35:45.362Z,18.80
2023-01-17T11:38:20.063Z,20.35
2023-01-17T11:40:50.335Z,15.55
2023-01-17T11:43:23.052Z,17.52
2023-01-17T11:46:06.818Z,23.65
2023-01-17T11:48:38.455Z,22.77
2023-01-17T11:51:20.465Z,10.13
2023-01-17T11:53:50.183Z,13.02
2023-01-17T11:56:23.585Z,8.20
2023-01-17T11:58:52.789Z,8.27
2023-01-17T12:01:36.573Z,7.47
2023-01-17T12:04:26.093Z,7.82
2023-01-17T12:07:12.182Z,6.18
2023-01-17T12:09:46.402Z,6.28
2023-01-17T12:12:44.757Z,9.13
2023-01-17T12:15:30.203Z,7.25
2023-01-17T12:18:14.665Z,8.13
2023-01-17T12:20:54.527Z,11.50
2023-01-17T12:23:46.415Z,8.55
2023-01-17T12:26:28.270Z,16.45
2023-01-17T12:29:17.314Z,5.13
2023-01-17T12:31:58.602Z,11.85
2023-01-17T12:34:31.291Z,7.53
2023-01-17T12:37:04.251Z,5.30
2023-01-17T12:39:38.313Z,7.20
2023-01-17T12:42:14.412Z,5.85
2023-01-17T12:44:52.660Z,6.68
2023-01-17T12:47:23.121Z,4.35
2023-01-17T12:50:05.709Z,8.80
2023-01-17T12:52:49.944Z,9.30
2023-01-17T12:55:30.523Z,6.68
2023-01-17T12:58:03.696Z,4.13
2023-01-17T13:00:37.020Z,17.02
2023-01-17T13:03:13.060Z,9.23
2023-01-17T13:05:46.317Z,6.32
2023-01-17T13:08:23.831Z,2.83
2023-01-17T13:10:58.240Z,2.22
2023-01-17T13:13:29.214Z,4.07
2023-01-17T13:16:02.064Z,3.05
2023-01-17T13:18:33.267Z,4.07
2023-01-17T13:21:30.229Z,3.28
2023-01-17T13:24:23.962Z,4.35
2023-01-17T13:27:18.201Z,5.55
2023-01-17T13:30:02.091Z,11.15
2023-01-17T13:32:52.909Z,9.63
2023-01-17T13:35:25.795Z,9.23
2023-01-17T13:38:19.808Z,10.70
2023-01-17T13:40:53.790Z,6.55
2023-01-17T13:43:26.883Z,10.50
2023-01-17T13:45:58.494Z,42.15
2023-01-17T13:48:32.509Z,43.75
2023-01-17T13:51:03.682Z,28.27
2023-01-17T13:53:50.424Z,17.80
2023-01-17T13:56:27.942Z,19.10
2023-01-17T13:59:36.009Z,18.27
2023-01-17T14:02:37.028Z,12.32
2023-01-17T14:05:12.435Z,12.70
2023-01-17T14:07:47.602Z,10.45
2023-01-17T14:12:57.268Z,13.35
2023-01-17T14:15:28.308Z,12.68
2023-01-17T14:18:03.633Z,10.63
2023-01-17T14:20:51.766Z,8.65
2023-01-17T14:23:48.897Z,8.57
2023-01-17T14:26:34.450Z,11.77
2023-01-17T14:29:39.529Z,14.63
2023-01-17T14:32:12.703Z,13.73
2023-01-17T14:34:44.895Z,14.45
2023-01-17T14:37:21.392Z,8.55
2023-01-17T14:39:51.995Z,6.22
2023-01-17T14:42:23.643Z,5.95
2023-01-17T14:44:59.200Z,16.75
2023-01-17T14:47:31.761Z,18.83
2023-01-17T14:50:25.777Z,13.38
2023-01-17T14:53:20.930Z,7.18
2023-01-17T14:55:56.698Z,11.95
2023-01-17T14:58:27.874Z,14.02
2023-01-17T15:01:01.165Z,19.13
2023-01-17T15:03:33.031Z,11.05
2023-01-17T15:06:11.845Z,23.35
2023-01-17T15:08:40.933Z,37.03
2023-01-17T15:11:16.926Z,22.50
2023-01-17T15:13:49.520Z,14.10
2023-01-17T15:16:22.435Z,13.02
2023-01-17T15:18:51.772Z,14.88
2023-01-17T15:21:24.171Z,10.90
2023-01-17T15:23:56.400Z,18.23
2023-01-17T15:26:27.651Z,15.60
2023-01-17T15:29:04.442Z,11.93
2023-01-17T15:31:44.382Z,11.88
2023-01-17T15:34:25.110Z,24.85
2023-01-17T15:36:58.013Z,21.10
2023-01-17T15:39:30.972Z,14.00
2023-01-17T15:42:02.400Z,14.68
2023-01-17T15:44:47.429Z,14.77
2023-01-17T15:47:29.117Z,11.90
2023-01-17T15:49:58.547Z,10.30
2023-01-17T15:52:29.257Z,17.55
2023-01-17T15:55:13.415Z,17.85
2023-01-17T15:57:47.583Z,30.48
2023-01-17T16:00:23.935Z,22.38
2023-01-17T16:02:56.184Z,23.08
2023-01-17T16:05:41.975Z,17.95
2023-01-17T16:08:31.065Z,11.48
2023-01-17T16:11:02.960Z,16.52
2023-01-17T16:13:33.497Z,14.82
2023-01-17T16:16:21.420Z,14.50
2023-01-17T16:18:55.152Z,55.35
2023-01-17T16:21:26.558Z,11.32
2023-01-17T16:23:57.559Z,12.48
2023-01-17T16:26:27.697Z,12.80
2023-01-17T16:28:56.719Z,27.98
2023-01-17T16:31:25.620Z,34.25
2023-01-17T16:33:54.571Z,22.65
2023-01-17T16:36:23.363Z,11.00
2023-01-17T16:38:53.383Z,5.40
2023-01-17T16:41:23.806Z,23.05
2023-01-17T16:43:59.249Z,20.70
2023-01-17T16:46:29.538Z,14.57
2023-01-17T16:51:28.567Z,17.42
2023-01-17T16:53:58.235Z,14.38
2023-01-17T16:56:28.537Z,10.80
2023-01-17T16:58:57.478Z,12.25
2023-01-17T17:01:26.366Z,12.68
2023-01-17T17:03:55.285Z,10.95
2023-01-17T17:06:24.340Z,8.70
2023-01-17T17:08:53.161Z,12.35
2023-01-17T17:11:23.970Z,42.55
2023-01-17T17:13:54.521Z,16.45
2023-01-17T17:16:26.540Z,9.88
2023-01-17T17:18:56.868Z,8.05
2023-01-17T17:21:26.138Z,15.85
2023-01-17T17:23:58.240Z,13.30
2023-01-17T17:26:30.827Z,6.60
2023-01-17T17:29:01.177Z,9.95
2023-01-17T17:31:30.131Z,10.45
2023-01-17T17:33:59.772Z,10.90
2023-01-17T17:36:28.894Z,8.73
2023-01-17T17:38:58.593Z,9.02
2023-01-17T17:41:28.921Z,5.05
2023-01-17T17:43:58.124Z,21.40
2023-01-17T17:46:29.428Z,203.93
2023-01-17T17:48:59.499Z,40.72
2023-01-17T17:51:30.456Z,5.35
2023-01-17T17:54:00.988Z,5.82
2023-01-17T17:56:31.282Z,4.03
2023-01-17T17:59:01.133Z,6.90
2023-01-17T18:01:31.850Z,7.20
2023-01-17T18:04:03.641Z,23.45
2023-01-17T18:06:32.479Z,14.88
2023-01-17T18:09:02.134Z,5.13
2023-01-17T18:11:31.996Z,16.65
2023-01-17T18:14:03.248Z,5.47
2023-01-17T18:16:36.339Z,6.93
2023-01-17T18:19:07.104Z,9.20
2023-01-17T18:21:38.317Z,7.75
2023-01-17T18:24:09.040Z,8.80
2023-01-17T18:26:39.993Z,8.40
2023-01-17T18:29:10.582Z,5.35
2023-01-17T18:31:40.909Z,9.45
2023-01-17T18:34:11.968Z,18.50
2023-01-17T18:36:40.982Z,17.10
2023-01-17T18:39:13.170Z,4.93
2023-01-17T18:41:42.605Z,9.43
2023-01-17T18:44:12.034Z,15.40
2023-01-17T18:46:43.307Z,7.10
2023-01-17T18:49:14.859Z,7.35
2023-01-17T18:51:46.625Z,13.85
2023-01-17T18:54:15.674Z,14.70
2023-01-17T18:56:44.697Z,12.57
2023-01-17T18:59:14.682Z,23.95
2023-01-17T19:01:45.206Z,23.52
2023-01-17T19:04:16.092Z,20.92
2023-01-17T19:06:48.114Z,19.35
2023-01-17T19:09:17.769Z,20.13
2023-01-17T19:11:47.581Z,5.68
2023-01-17T19:14:16.554Z,9.60
2023-01-17T19:16:46.816Z,28.13
2023-01-17T19:19:16.558Z,24.88
2023-01-17T19:21:45.810Z,21.23
2023-01-17T19:24:14.709Z,36.25
2023-01-17T19:26:44.079Z,8.20
2023-01-17T19:29:13.273Z,0.98
2023-01-17T19:31:43.645Z,4.72
2023-01-17T19:34:15.979Z,0.55
2023-01-17T19:36:45.000Z,3.60
2023-01-17T19:39:14.466Z,1.70
2023-01-17T19:41:45.530Z,4.65
2023-01-17T19:44:15.619Z,6.22
2023-01-17T19:46:46.150Z,2.58
2023-01-17T19:49:20.770Z,3.42
2023-01-17T19:51:50.132Z,4.47
2023-01-17T19:54:19.776Z,1.55
2023-01-17T19:56:48.691Z,5.68
2023-01-17T19:59:20.117Z,1.50
2023-01-17T20:01:49.155Z,2.53
2023-01-17T20:04:19.501Z,0.77
2023-01-17T20:06:48.435Z,0.63
2023-01-17T20:09:17.240Z,1.35
2023-01-17T20:11:46.756Z,0.73
2023-01-17T20:14:16.612Z,3.35
2023-01-17T20:16:47.568Z,2.22
2023-01-17T20:19:16.824Z,1.23
2023-01-17T20:21:47.174Z,0.70
2023-01-17T20:24:16.666Z,1.55
2023-01-17T20:26:46.044Z,1.95
2023-01-17T20:29:17.273Z,1.83
2023-01-17T20:31:46.890Z,3.92
2023-01-17T20:34:19.673Z,1.40
2023-01-17T20:36:49.948Z,2.22
2023-01-17T20:39:19.635Z,0.45
2023-01-17T20:41:50.044Z,2.20
2023-01-17T20:44:20.079Z,3.60
2023-01-17T20:46:49.124Z,2.13
2023-01-17T20:49:20.005Z,1.30
2023-01-17T20:51:50.253Z,0.90
2023-01-17T20:54:20.187Z,1.48
2023-01-17T20:56:49.515Z,4.55
2023-01-17T20:59:21.658Z,1.52
2023-01-17T21:01:51.832Z,2.35
2023-01-17T21:04:25.714Z,2.05
2023-01-17T21:06:56.408Z,6.88
2023-01-17T21:09:25.562Z,1.73
2023-01-17T21:11:54.459Z,1.65
2023-01-17T21:14:23.293Z,2.35
2023-01-17T21:16:52.143Z,4.22
2023-01-17T21:19:21.322Z,2.03
2023-01-17T21:21:50.213Z,1.65
2023-01-17T21:24:20.495Z,1.88
2023-01-17T21:26:51.523Z,1.25
2023-01-17T21:29:20.661Z,2.03
2023-01-17T21:31:49.461Z,0.70
2023-01-17T21:34:18.319Z,0.65
2023-01-17T21:36:47.149Z,1.05
2023-01-17T21:39:18.685Z,0.80
2023-01-17T21:41:50.880Z,1.63
2023-01-17T21:44:21.626Z,1.73
2023-01-17T21:46:56.487Z,5.65
2023-01-17T21:49:25.578Z,1.27
2023-01-17T21:52:12.095Z,1.85
2023-01-17T21:54:58.377Z,3.15
2023-01-17T21:57:46.710Z,2.03
2023-01-17T22:00:16.442Z,1.27
2023-01-17T22:02:46.529Z,5.95
2023-01-17T22:05:18.095Z,1.75
2023-01-17T22:08:00.850Z,2.35
2023-01-17T22:10:29.710Z,3.08
2023-01-17T22:13:00.004Z,2.53
2023-01-17T22:15:29.663Z,2.10
2023-01-17T22:17:58.877Z,2.22
2023-01-17T22:20:28.007Z,2.40
2023-01-17T22:22:57.180Z,2.25
2023-01-17T22:25:26.372Z,2.10
2023-01-17T22:27:55.657Z,1.83
2023-01-17T22:30:26.135Z,0.80
2023-01-17T22:32:56.937Z,1.02
2023-01-17T22:35:26.157Z,1.75
2023-01-17T22:37:55.030Z,0.88
2023-01-17T22:40:26.194Z,0.55
2023-01-17T22:42:55.343Z,0.65
2023-01-17T22:45:26.096Z,1.23
2023-01-17T22:47:55.018Z,6.72
2023-01-17T22:50:24.348Z,2.40
2023-01-17T22:52:53.235Z,3.40
2023-01-17T22:55:22.384Z,1.48
2023-01-17T22:57:51.256Z,0.47
2023-01-17T23:00:20.545Z,1.75
2023-01-17T23:02:51.000Z,0.63
2023-01-17T23:05:20.338Z,1.38
2023-01-17T23:07:50.957Z,0.55
2023-01-17T23:10:33.733Z,0.57
2023-01-17T23:13:03.565Z,0.82
2023-01-17T23:15:49.740Z,0.95
2023-01-17T23:18:37.474Z,2.28
2023-01-17T23:21:08.680Z,1.15
2023-01-17T23:23:37.496Z,1.08
2023-01-17T23:26:06.549Z,1.38
2023-01-17T23:28:34.368Z,1.55
2023-01-17T23:31:06.276Z,1.40
2023-01-17T23:33:36.539Z,0.95
2023-01-17T23:36:09.297Z,5.38
2023-01-17T23:38:40.649Z,0.55
2023-01-17T23:41:27.914Z,3.30
2023-01-17T23:43:58.783Z,1.15
2023-01-17T23:46:30.127Z,1.27
2023-01-17T23:49:00.526Z,0.70
2023-01-17T23:51:30.796Z,0.30
2023-01-17T23:54:05.504Z,0.45
2023-01-17T23:56:34.450Z,0.52
2023-01-17T23:59:04.508Z,5.85
